Página principal
METAR-TAF:

METAR-TAF

Aeroportos :

Aeroporto Internacional de Ecaterimburgo-Koltsovo

Ecaterimburgo, Rússia

latitude: 56-50N, longitude: 060-38E, altura: 237 m

Observação actual do tempo

O boletim foi feito há 38 minutos, às 05:00 UTC
Vento 2 kt com direcção variável
Temperatura 22°C
Humidade 88%
Pressão 1000 hPa
Visibilidade 10 km ou mais
Nuvens dispersasa uma altura de 1600 ft

METAR: USSS 230500Z VRB01MPS 9999 SCT016 22/20 Q1000 R26L/010060 NOSIG RMK QFE730/0973

Hora: 10:38 (05:38 UTC)

Previsão

O boletim foi feito há 46 minutos, às 04:52 UTC
Previsão válida de 23 às 06 UTC a 24 às 06 UTC
Vento 6 kt de sudeste com rajadas de 25 kt
Visibilidade: 8000 m
Nuvens fragmentadasa uma altura de 2000 ft, Cumulonimbus.
aguaceiros fracos de chuva
Temporariamente
de 23 às 07 UTC a 24 às 06 UTC
Vento 16 kt de su-sudeste com rajadas de 43 kt
trovoada, chuva fraca, granizo,

TAF: USSS 230452Z 2306/2406 13003G13MPS 8000 -SHRA BKN020CB TEMPO 2307/2406 16008G22MPS -TSRAGR

Observações e previsões do tempo de mais de 4000 aeroportos (mensagens METAR e TAF).

As estações disponíveis são os pontos amarelos e vermelhos sobre o mapa.

Mova o rato sobre o mapa para ver o nome da estação.

Depois clique no ponto para visualizar as observações e previsões meteorológicas.

Para alterar o mapa : clique nos botões verdes com uma cruz preta para aumentar o zoom; no botão verde com uma pitada de zoom; ou nas setas verdes para mapas adjacentes.


METAR-TAF: